Wednesday, November 22, 2017, 3:59 AM EST
Back to Local

KRUT, Rutland, Rutland-southern Vermont Regional Airport

Location: North Clarendon, VT, United States Lat: 43.533
Local Time: 3:59 AM EST ( 8:59 GMT) Lon: -72.95
Time Zone: US/Eastern Elev: 787 ft

Show me the last for .
Show Coded

Time T Td Feel RH Dir Speed Gust Alt SLP Vis Weather Sky Remarks
2017-11-22 02:56 37 25 29 61 120° 13 - 29.90 29.97 10 CLR None
2017-11-22 01:56 35 25 27 66 120° 12 - 29.92 29.98 10 CLR None
2017-11-22 00:56 35 25 26 66 120° 13 - 29.91 29.98 10 CLR 6-hr Min Temp (1am): 35.1°F
6-hr Max Temp (1am): 45.0°F
2017-11-21 23:56 38 24 31 56 130° 9 - 29.93 30.00 10 CLR 24-hr Min Temp (12am): 28.0°F
24-hr Max Temp (12am): 57.0°F
2017-11-21 22:56 41 24 36 50 130° 7 - 29.93 30.00 10 CLR None
2017-11-21 21:56 43 24 40 46 150° 5 - 29.93 30.00 10 CLR None
2017-11-21 20:56 40 23 - 50 - Calm - 29.93 29.99 10 CLR None
2017-11-21 19:56 41 23 39 48 100° 3 - 29.92 29.98 10 CLR None
2017-11-21 18:56 43 22 39 42 100° 7 - 29.90 29.96 10 CLR 6-hr Min Temp (7pm): 43.0°F
6-hr Max Temp (7pm): 57.0°F
2017-11-21 17:56 49 19 45 30 140° 8 - 29.89 29.96 10 CLR None
2017-11-21 16:56 51 18 - 26 170° 9 - 29.88 29.94 10 CLR None
2017-11-21 15:56 54 17 - 23 160° 6 16 29.86 29.92 10 CLR None
2017-11-21 14:56 57 17 - 20 170° 15 21 29.84 29.91 10 CLR None
2017-11-21 13:56 57 18 - 21 180° 12 22 29.84 29.91 10 CLR None
2017-11-21 12:56 57 17 - 20 200° 14 26 29.85 29.92 10 CLR 6-hr Min Temp (1pm): 30.0°F
6-hr Max Temp (1pm): 57.0°F
2017-11-21 11:56 56 20 - 24 160° 10 - 29.88 29.94 10 CLR None
2017-11-21 10:56 51 22 - 31 180° 5 - 29.91 29.97 10 CLR None
2017-11-21 09:56 47 22 45 36 Variable 5 - 29.94 30.01 10 CLR None
2017-11-21 08:56 39 25 35 56 140° 6 - 29.97 30.03 10 CLR None
2017-11-21 07:56 33 24 27 69 110° 7 - 29.99 30.06 10 CLR None
2017-11-21 06:56 30 24 22 78 130° 9 - 29.99 30.05 10 CLR 6-hr Min Temp (7am): 28.0°F
6-hr Max Temp (7am): 35.1°F
2017-11-21 05:56 29 25 22 84 140° 7 - 29.99 30.05 10 CLR None
2017-11-21 04:56 30 26 26 84 120° 3 - 29.99 30.05 10 CLR None

Support USWX by starting your Amazon purchase here.